EWG2KP EDLW-EDDC
Flight info
| Callsign | EWG2KP |
|---|---|
| Flight time | N/A |
| Altitude | 23000 |
| Route | NUDGO3Q NUDGO Z858 BERDI Z21 RIVSA |
| Aircraft | A320/M-SDE3FGHIRWY/LB1 |
Departure
| Time | 2026-04-30 20:23 |
|---|---|
| Airport | Dortmund Airport (EDLW) |
Arrival
| Time | N/A |
|---|---|
| Airport | Dresden Airport (EDDC) |
| Time | Latitude | Longitude | Altitude | Speed | Heading |
|---|---|---|---|---|---|
| 2026-04-30 19:52 | 51.51646 | 7.61458 | 434 ft | 0 kts | 332° |
| 2026-04-30 19:54 | 51.51645 | 7.61458 | 434 ft | 0 kts | 332° |
| 2026-04-30 19:58 | 51.51645 | 7.61459 | 434 ft | 0 kts | 332° |
| 2026-04-30 20:12 | 51.51661 | 7.61445 | 422 ft | 12 kts | 332° |
| 2026-04-30 20:13 | 51.51689 | 7.61357 | 432 ft | 8 kts | 252° |
| 2026-04-30 20:13 | 51.51655 | 7.61260 | 428 ft | 18 kts | 239° |
| 2026-04-30 20:13 | 51.51589 | 7.61063 | 425 ft | 20 kts | 243° |
| 2026-04-30 20:13 | 51.51529 | 7.60875 | 424 ft | 18 kts | 241° |
| 2026-04-30 20:14 | 51.51483 | 7.60744 | 418 ft | 0 kts | 241° |
| 2026-04-30 20:15 | 51.51465 | 7.60692 | 418 ft | 14 kts | 241° |
| 2026-04-30 20:15 | 51.51426 | 7.60581 | 421 ft | 0 kts | 240° |
| 2026-04-30 20:16 | 51.51425 | 7.60578 | 423 ft | 3 kts | 240° |
| 2026-04-30 20:16 | 51.51392 | 7.60483 | 417 ft | 14 kts | 241° |
| 2026-04-30 20:16 | 51.51361 | 7.60342 | 419 ft | 2 kts | 275° |
| 2026-04-30 20:21 | 51.51363 | 7.60334 | 421 ft | 5 kts | 287° |
| 2026-04-30 20:21 | 51.51409 | 7.60265 | 417 ft | 11 kts | 329° |
| 2026-04-30 20:21 | 51.51488 | 7.60257 | 407 ft | 11 kts | 31° |
| 2026-04-30 20:22 | 51.51516 | 7.60321 | 414 ft | 0 kts | 60° |
| 2026-04-30 20:22 | 51.51554 | 7.60431 | 414 ft | 42 kts | 61° |
| 2026-04-30 20:23 | 51.51821 | 7.61193 | 413 ft | 111 kts | 60° |
| 2026-04-30 20:23 | 51.52261 | 7.62483 | 575 ft | 145 kts | 63° |
| 2026-04-30 20:23 | 51.52725 | 7.63914 | 1251 ft | 144 kts | 65° |
| 2026-04-30 20:23 | 51.53205 | 7.65352 | 1825 ft | 153 kts | 67° |
| 2026-04-30 20:24 | 51.53747 | 7.66929 | 2159 ft | 169 kts | 67° |
| 2026-04-30 20:24 | 51.54347 | 7.68599 | 2575 ft | 178 kts | 67° |
| 2026-04-30 20:24 | 51.55006 | 7.70444 | 2834 ft | 204 kts | 66° |
| 2026-04-30 20:24 | 51.55738 | 7.72572 | 3129 ft | 232 kts | 66° |
| 2026-04-30 20:25 | 51.56354 | 7.77675 | 4507 ft | 247 kts | 112° |
| 2026-04-30 20:25 | 51.55597 | 7.80170 | 5464 ft | 249 kts | 118° |
| 2026-04-30 20:26 | 51.53895 | 7.85131 | 7241 ft | 259 kts | 117° |
| 2026-04-30 20:26 | 51.52205 | 7.90300 | 9055 ft | 266 kts | 123° |
| 2026-04-30 20:26 | 51.50942 | 7.92515 | 9879 ft | 273 kts | 136° |
| 2026-04-30 20:27 | 51.48144 | 7.96859 | 11110 ft | 297 kts | 131° |
| 2026-04-30 20:27 | 51.45151 | 8.01978 | 12001 ft | 328 kts | 131° |
| 2026-04-30 20:28 | 51.42486 | 8.07913 | 13535 ft | 332 kts | 112° |
| 2026-04-30 20:28 | 51.41627 | 8.15162 | 14972 ft | 337 kts | 90° |
| 2026-04-30 20:29 | 51.41587 | 8.22685 | 16299 ft | 344 kts | 90° |
| 2026-04-30 20:30 | 51.41474 | 8.34352 | 18254 ft | 355 kts | 90° |
| 2026-04-30 20:30 | 51.41334 | 8.46380 | 20010 ft | 365 kts | 90° |
| 2026-04-30 20:31 | 51.41202 | 8.58738 | 21726 ft | 375 kts | 90° |
| 2026-04-30 20:32 | 51.41055 | 8.71363 | 23291 ft | 385 kts | 89° |
| 2026-04-30 20:32 | 51.40669 | 8.79916 | 23404 ft | 386 kts | 95° |
| 2026-04-30 20:33 | 51.40326 | 8.84187 | 23418 ft | 386 kts | 95° |
| 2026-04-30 20:33 | 51.39636 | 8.92718 | 23417 ft | 386 kts | 95° |
| 2026-04-30 20:33 | 51.39293 | 8.96983 | 23426 ft | 386 kts | 95° |
| 2026-04-30 20:34 | 51.38622 | 9.05448 | 23430 ft | 386 kts | 93° |
| 2026-04-30 20:34 | 51.38717 | 9.13980 | 23431 ft | 383 kts | 85° |
| 2026-04-30 20:35 | 51.38850 | 9.18239 | 23438 ft | 383 kts | 85° |
| 2026-04-30 20:35 | 51.38976 | 9.22503 | 23443 ft | 383 kts | 85° |
| 2026-04-30 20:35 | 51.39213 | 9.31023 | 23445 ft | 383 kts | 85° |
| 2026-04-30 20:36 | 51.39327 | 9.35291 | 23446 ft | 383 kts | 85° |
| 2026-04-30 20:36 | 51.39445 | 9.39548 | 23452 ft | 383 kts | 85° |
| 2026-04-30 20:36 | 51.39679 | 9.48002 | 23452 ft | 383 kts | 85° |
| 2026-04-30 20:37 | 51.39794 | 9.52263 | 23440 ft | 383 kts | 85° |
| 2026-04-30 20:37 | 51.39905 | 9.56513 | 23453 ft | 383 kts | 85° |
| 2026-04-30 20:37 | 51.40017 | 9.60774 | 23444 ft | 382 kts | 85° |
| 2026-04-30 20:37 | 51.40125 | 9.65031 | 23454 ft | 382 kts | 85° |
| 2026-04-30 20:38 | 51.40230 | 9.69286 | 23448 ft | 382 kts | 85° |
| 2026-04-30 20:38 | 51.40332 | 9.73531 | 23452 ft | 382 kts | 85° |
| 2026-04-30 20:38 | 51.40438 | 9.77721 | 23452 ft | 382 kts | 85° |
| 2026-04-30 20:39 | 51.40653 | 9.86214 | 23455 ft | 381 kts | 85° |
| 2026-04-30 20:39 | 51.40754 | 9.90458 | 23452 ft | 381 kts | 85° |
| 2026-04-30 20:39 | 51.40851 | 9.94701 | 23451 ft | 381 kts | 85° |
| 2026-04-30 20:40 | 51.41044 | 10.03184 | 23450 ft | 381 kts | 85° |
| 2026-04-30 20:40 | 51.41139 | 10.07418 | 23452 ft | 381 kts | 85° |
| 2026-04-30 20:40 | 51.41231 | 10.11599 | 23454 ft | 381 kts | 85° |
| 2026-04-30 20:41 | 51.41410 | 10.20060 | 23449 ft | 380 kts | 85° |
| 2026-04-30 20:41 | 51.41497 | 10.24297 | 23451 ft | 380 kts | 85° |
| 2026-04-30 20:41 | 51.41583 | 10.28524 | 23448 ft | 380 kts | 85° |
| 2026-04-30 20:41 | 51.41667 | 10.32755 | 23447 ft | 380 kts | 85° |
| 2026-04-30 20:42 | 51.41750 | 10.36979 | 23448 ft | 380 kts | 85° |
| 2026-04-30 20:42 | 51.41831 | 10.41211 | 23448 ft | 379 kts | 85° |
| 2026-04-30 20:42 | 51.41987 | 10.49596 | 23446 ft | 379 kts | 85° |
| 2026-04-30 20:43 | 51.41830 | 10.53828 | 23446 ft | 383 kts | 95° |
| 2026-04-30 20:43 | 51.41420 | 10.58049 | 23448 ft | 383 kts | 95° |
| 2026-04-30 20:43 | 51.41005 | 10.62263 | 23446 ft | 383 kts | 95° |
| 2026-04-30 20:44 | 51.40171 | 10.70701 | 23446 ft | 383 kts | 95° |
| 2026-04-30 20:44 | 51.39757 | 10.74915 | 23447 ft | 383 kts | 95° |
| 2026-04-30 20:44 | 51.38931 | 10.83284 | 23454 ft | 383 kts | 95° |
| 2026-04-30 20:45 | 51.38105 | 10.91695 | 23449 ft | 382 kts | 92° |
| 2026-04-30 20:45 | 51.38037 | 10.95913 | 23451 ft | 377 kts | 83° |
| 2026-04-30 20:45 | 51.38204 | 11.00101 | 23445 ft | 377 kts | 83° |
| 2026-04-30 20:46 | 51.38684 | 11.12670 | 23453 ft | 377 kts | 83° |
| 2026-04-30 20:46 | 51.38834 | 11.16801 | 23446 ft | 377 kts | 83° |
| 2026-04-30 20:47 | 51.39124 | 11.25177 | 23444 ft | 377 kts | 83° |
| 2026-04-30 20:47 | 51.39268 | 11.29363 | 23446 ft | 377 kts | 83° |
| 2026-04-30 20:48 | 51.39559 | 11.37739 | 23448 ft | 376 kts | 83° |
| 2026-04-30 20:48 | 51.39700 | 11.41923 | 23441 ft | 376 kts | 83° |
| 2026-04-30 20:48 | 51.39842 | 11.46101 | 23437 ft | 376 kts | 83° |
| 2026-04-30 20:48 | 51.39985 | 11.50294 | 23441 ft | 376 kts | 83° |
| 2026-04-30 20:49 | 51.40127 | 11.54477 | 23442 ft | 376 kts | 83° |
| 2026-04-30 20:49 | 51.40265 | 11.58663 | 23443 ft | 376 kts | 83° |
| 2026-04-30 20:49 | 51.40397 | 11.62791 | 23432 ft | 376 kts | 83° |
| 2026-04-30 20:50 | 51.40657 | 11.70989 | 23432 ft | 376 kts | 83° |
| 2026-04-30 20:50 | 51.40788 | 11.75169 | 23433 ft | 376 kts | 83° |
| 2026-04-30 20:50 | 51.40916 | 11.79354 | 23434 ft | 376 kts | 83° |
| 2026-04-30 20:50 | 51.41044 | 11.83544 | 23440 ft | 376 kts | 83° |
| 2026-04-30 20:51 | 51.41168 | 11.87726 | 23440 ft | 376 kts | 83° |
| 2026-04-30 20:51 | 51.41416 | 11.96103 | 23441 ft | 376 kts | 83° |
| 2026-04-30 20:51 | 51.41537 | 12.00227 | 23440 ft | 376 kts | 83° |
| 2026-04-30 20:52 | 51.41659 | 12.04413 | 23439 ft | 376 kts | 83° |
| 2026-04-30 20:52 | 51.41779 | 12.08588 | 23441 ft | 376 kts | 83° |
| 2026-04-30 20:52 | 51.42017 | 12.16962 | 23440 ft | 376 kts | 83° |
| 2026-04-30 20:53 | 51.42130 | 12.21117 | 23365 ft | 367 kts | 84° |
| 2026-04-30 20:53 | 51.42235 | 12.25162 | 22975 ft | 360 kts | 83° |
| 2026-04-30 20:53 | 51.42336 | 12.29145 | 22505 ft | 356 kts | 84° |
| 2026-04-30 20:54 | 51.42540 | 12.36949 | 21568 ft | 349 kts | 83° |
| 2026-04-30 20:54 | 51.42641 | 12.40817 | 21096 ft | 346 kts | 83° |
| 2026-04-30 20:54 | 51.42739 | 12.44653 | 20633 ft | 343 kts | 84° |
| 2026-04-30 20:55 | 51.42780 | 12.52228 | 19732 ft | 341 kts | 93° |
| 2026-04-30 20:55 | 51.42230 | 12.55933 | 19463 ft | 346 kts | 104° |
| 2026-04-30 20:55 | 51.41210 | 12.59436 | 19108 ft | 349 kts | 115° |
| 2026-04-30 20:56 | 51.38655 | 12.66010 | 18153 ft | 346 kts | 116° |
| 2026-04-30 20:56 | 51.37386 | 12.69264 | 17662 ft | 343 kts | 116° |
| 2026-04-30 20:56 | 51.34890 | 12.75666 | 16716 ft | 340 kts | 116° |
| 2026-04-30 20:57 | 51.33643 | 12.78866 | 16257 ft | 338 kts | 116° |